Time;durP1;ratioP1;P1;durP2;ratioP2;P2;SDS_P1;SDS_P2;PMS_P1;PMS_P2;Temp;Humidity;BMP_temperature;BMP_pressure;BME280_temperature;BME280_humidity;BME280_pressure;Samples;Min_cycle;Max_cycle;Signal;HPM_P1;HPM_P2
2023/09/11 00:01:16;;;;;;;31.17;14.32;;;23.40;99.90;;;;;;5099249;28;20376;-77
2023/09/11 00:03:42;;;;;;;30.70;13.48;;;23.20;99.90;;;;;;5118323;28;20146;-71
2023/09/11 00:06:08;;;;;;;29.85;14.15;;;;;;;;;;5119469;28;20055;-76
2023/09/11 00:08:34;;;;;;;32.58;13.95;;;;;;;;;;5120397;28;20024;-76
2023/09/11 00:11:00;;;;;;;33.08;14.75;;;21.60;99.90;;;;;;5120509;28;20027;-71
2023/09/11 00:13:27;;;;;;;30.40;13.88;;;22.40;99.90;;;;;;5117549;28;20075;-71
2023/09/11 00:15:53;;;;;;;28.75;14.27;;;21.80;99.90;;;;;;5099844;28;20045;-71
2023/09/11 00:18:18;;;;;;;30.00;14.18;;;21.60;99.90;;;;;;5098275;28;20118;-71
2023/09/11 00:20:44;;;;;;;29.80;14.25;;;21.90;99.90;;;;;;5100352;28;20099;-77
2023/09/11 00:23:10;;;;;;;34.40;14.25;;;21.80;99.90;;;;;;5083315;28;20043;-76
2023/09/11 00:25:36;;;;;;;30.58;13.85;;;;;;;;;;5097388;28;20119;-77
2023/09/11 00:28:02;;;;;;;30.95;14.02;;;21.30;99.90;;;;;;5096712;28;20099;-77
2023/09/11 00:30:28;;;;;;;31.75;13.43;;;22.10;99.90;;;;;;5096479;28;20036;-77
2023/09/11 00:32:54;;;;;;;29.92;13.88;;;23.00;99.90;;;;;;5095235;28;20067;-77
2023/09/11 00:35:20;;;;;;;33.97;13.65;;;22.40;99.90;;;;;;5095176;28;20099;-77
2023/09/11 00:37:47;;;;;;;23.90;13.20;;;23.10;99.90;;;;;;5095091;28;20548;-77
2023/09/11 00:40:13;;;;;;;33.45;15.85;;;;;;;;;;5095198;28;20047;-77
2023/09/11 00:42:39;;;;;;;27.67;13.93;;;22.20;99.90;;;;;;5078077;28;20056;-77
2023/09/11 00:45:05;;;;;;;26.38;14.27;;;21.60;99.90;;;;;;5094990;28;20105;-77
2023/09/11 00:47:31;;;;;;;34.17;14.88;;;22.80;99.90;;;;;;5095235;28;20035;-71
2023/09/11 00:49:58;;;;;;;28.65;14.73;;;21.60;99.90;;;;;;5094999;28;20376;-71
2023/09/11 00:52:24;;;;;;;34.10;15.68;;;21.10;99.90;;;;;;5095246;28;20040;-71
2023/09/11 00:54:53;;;;;;;30.88;15.55;;;22.40;99.90;;;;;;5078150;28;20075;-71
2023/09/11 00:57:20;;;;;;;26.70;13.80;;;21.10;99.90;;;;;;5078088;28;20075;-71
2023/09/11 00:59:48;;;;;;;31.40;15.32;;;22.40;99.90;;;;;;5095013;28;20073;-71
2023/09/11 01:02:14;;;;;;;35.97;14.00;;;23.00;99.90;;;;;;5078019;28;20058;-71
2023/09/11 01:04:41;;;;;;;33.97;15.40;;;21.60;99.90;;;;;;5094813;28;20036;-71
2023/09/11 01:07:07;;;;;;;37.40;14.02;;;21.90;99.90;;;;;;5094902;28;20157;-71
2023/09/11 01:09:34;;;;;;;29.65;15.88;;;21.30;99.90;;;;;;5094827;28;20122;-70
2023/09/11 01:12:00;;;;;;;29.48;14.40;;;;;;;;;;5077893;28;20470;-72
2023/09/11 01:14:27;;;;;;;29.48;14.93;;;20.80;99.90;;;;;;5094667;28;20493;-71
2023/09/11 01:17:05;;;;;;;31.30;14.10;;;21.30;99.90;;;;;;5094985;28;20078;-70
2023/09/11 01:19:52;;;;;;;27.00;14.73;;;22.00;99.90;;;;;;5094640;28;20043;-70
2023/09/11 01:22:21;;;;;;;25.60;14.48;;;20.90;99.90;;;;;;5098378;28;20433;-70
2023/09/11 01:25:04;;;;;;;28.23;16.58;;;22.10;99.90;;;;;;5098266;28;20441;-70
2023/09/11 01:27:55;;;;;;;33.80;15.30;;;22.30;99.90;;;;;;5098665;28;20428;-70
2023/09/11 01:30:22;;;;;;;29.48;15.45;;;22.70;99.90;;;;;;5098827;28;20384;-71
2023/09/11 01:32:48;;;;;;;33.03;15.07;;;21.90;99.90;;;;;;5098395;28;20036;-70
2023/09/11 01:35:14;;;;;;;31.48;15.27;;;22.50;99.90;;;;;;5098105;28;20043;-70
2023/09/11 01:37:40;;;;;;;32.10;15.25;;;;;;;;;;5098154;28;20047;-70
2023/09/11 01:40:07;;;;;;;33.78;17.05;;;21.60;99.90;;;;;;5081342;28;20047;-71
2023/09/11 01:42:46;;;;;;;35.00;16.00;;;20.70;99.90;;;;;;5097861;28;20059;-71
2023/09/11 01:45:15;;;;;;;22.88;14.65;;;21.40;99.90;;;;;;5081409;28;20130;-71
2023/09/11 01:47:46;;;;;;;35.05;16.70;;;22.70;99.90;;;;;;5081392;28;20039;-71
2023/09/11 01:50:15;;;;;;;34.75;15.50;;;20.60;99.90;;;;;;5097849;28;20118;-72
2023/09/11 01:52:43;;;;;;;28.25;16.17;;;22.40;99.90;;;;;;5097878;28;20542;-71
2023/09/11 01:55:09;;;;;;;32.92;16.13;;;;;;;;;;5080899;28;20075;-71
2023/09/11 01:57:35;;;;;;;27.92;16.00;;;;;;;;;;5097952;28;20069;-71
2023/09/11 02:00:01;;;;;;;37.47;15.70;;;22.20;99.90;;;;;;5097756;28;20051;-71
2023/09/11 02:02:29;;;;;;;32.00;17.42;;;21.00;99.90;;;;;;5097849;28;20040;-76
2023/09/11 02:04:55;;;;;;;32.53;17.92;;;21.30;99.90;;;;;;5080739;28;20044;-77
2023/09/11 02:07:21;;;;;;;32.75;16.33;;;;;;;;;;5097552;28;20047;-77
2023/09/11 02:09:47;;;;;;;36.15;16.33;;;20.30;99.90;;;;;;5097468;28;20042;-76
2023/09/11 02:12:13;;;;;;;30.17;15.75;;;22.30;99.90;;;;;;5080696;28;20040;-76
2023/09/11 02:14:38;;;;;;;38.85;16.83;;;20.60;99.90;;;;;;5097155;28;20484;-77
2023/09/11 02:17:04;;;;;;;34.88;16.08;;;21.30;99.90;;;;;;5115528;28;20118;-77
2023/09/11 02:19:31;;;;;;;26.63;15.75;;;21.20;99.90;;;;;;5080399;28;20507;-77
2023/09/11 02:21:57;;;;;;;32.00;16.55;;;20.70;99.90;;;;;;5097010;28;20489;-77
2023/09/11 02:24:23;;;;;;;34.67;16.52;;;21.50;99.90;;;;;;5097415;28;20039;-77
2023/09/11 02:26:50;;;;;;;30.35;16.42;;;;;;;;;;5080105;28;20475;-77
2023/09/11 02:29:15;;;;;;;32.42;15.57;;;20.40;99.90;;;;;;5096911;28;20051;-77
2023/09/11 02:31:41;;;;;;;27.60;16.35;;;20.20;99.90;;;;;;5096594;28;20040;-77
2023/09/11 02:34:07;;;;;;;32.22;17.20;;;;;;;;;;5096875;28;20036;-77
2023/09/11 02:36:33;;;;;;;26.55;14.65;;;20.40;99.90;;;;;;5080252;28;20391;-77
2023/09/11 02:38:59;;;;;;;34.33;16.42;;;;;;;;;;5096873;28;20050;-76
2023/09/11 02:41:25;;;;;;;37.20;17.15;;;20.20;99.90;;;;;;5096711;28;20510;-77
2023/09/11 02:43:51;;;;;;;37.95;18.45;;;;;;;;;;5080326;28;20073;-77
2023/09/11 02:46:17;;;;;;;31.88;16.95;;;;;;;;;;5096620;28;20479;-76
2023/09/11 02:48:47;;;;;;;38.25;17.02;;;20.30;99.90;;;;;;5096768;28;20118;-77
2023/09/11 02:51:13;;;;;;;30.75;16.58;;;21.40;99.90;;;;;;5079677;28;20510;-77
2023/09/11 02:53:39;;;;;;;29.73;15.70;;;;;;;;;;5096966;28;20089;-77
2023/09/11 02:56:05;;;;;;;32.88;16.73;;;22.20;99.90;;;;;;5079872;28;20134;-77
2023/09/11 02:58:31;;;;;;;38.92;18.77;;;22.20;99.90;;;;;;5096697;28;20071;-77
2023/09/11 03:01:02;;;;;;;36.30;17.00;;;21.30;99.90;;;;;;5096828;28;20047;-77
2023/09/11 03:03:28;;;;;;;33.38;17.48;;;;;;;;;;5096393;28;20039;-76
2023/09/11 03:05:58;;;;;;;33.00;16.08;;;22.20;99.90;;;;;;5096240;28;20625;-71
2023/09/11 03:08:24;;;;;;;34.75;17.23;;;20.60;99.90;;;;;;5096386;28;20052;-71
2023/09/11 03:10:50;;;;;;;29.55;16.88;;;22.10;99.90;;;;;;5096399;28;20040;-71
2023/09/11 03:13:16;;;;;;;30.15;17.52;;;;;;;;;;5096150;28;20506;-71
2023/09/11 03:15:43;;;;;;;36.22;16.88;;;;;;;;;;5096084;28;20043;-71
2023/09/11 03:18:09;;;;;;;34.88;17.52;;;21.20;99.90;;;;;;5079375;28;20050;-71
2023/09/11 03:20:35;;;;;;;36.50;16.15;;;22.10;99.90;;;;;;5079309;28;20043;-71
2023/09/11 03:23:00;;;;;;;33.33;17.80;;;21.40;99.90;;;;;;5096424;28;20092;-71
2023/09/11 03:25:26;;;;;;;33.17;17.13;;;22.00;99.90;;;;;;5096172;28;20123;-71
2023/09/11 03:27:55;;;;;;;31.70;16.65;;;21.10;99.90;;;;;;5062511;28;20583;-71
2023/09/11 03:30:21;;;;;;;30.10;17.70;;;20.90;99.90;;;;;;5079208;28;20093;-77
2023/09/11 03:32:46;;;;;;;28.60;18.17;;;22.10;99.90;;;;;;5079462;28;20065;-76
2023/09/11 03:35:12;;;;;;;32.03;17.40;;;21.70;99.90;;;;;;5095876;28;20104;-77
2023/09/11 03:37:38;;;;;;;32.35;18.20;;;20.20;99.90;;;;;;5096127;28;20051;-77
2023/09/11 03:40:07;;;;;;;35.47;16.70;;;21.80;99.90;;;;;;5096353;28;20039;-77
2023/09/11 03:42:36;;;;;;;32.30;18.20;;;20.50;99.90;;;;;;5095833;28;20361;-76
2023/09/11 03:45:02;;;;;;;29.05;16.95;;;20.30;99.90;;;;;;5095670;28;20059;-76
2023/09/11 03:47:27;;;;;;;35.67;16.52;;;20.40;99.90;;;;;;5114562;28;20097;-76
2023/09/11 03:49:54;;;;;;;31.90;18.58;;;;;;;;;;5096819;28;20039;-76
2023/09/11 03:52:19;;;;;;;33.67;17.17;;;19.90;99.90;;;;;;5100491;28;20043;-76
2023/09/11 03:54:45;;;;;;;37.25;17.83;;;22.00;99.90;;;;;;5100637;28;20080;-77
2023/09/11 03:57:11;;;;;;;28.35;17.92;;;;;;;;;;5067727;28;20046;-76
2023/09/11 03:59:37;;;;;;;63.65;19.58;;;;;;;;;;5100494;28;20143;-77
2023/09/11 04:02:03;;;;;;;34.70;18.23;;;21.20;99.90;;;;;;5100336;28;20038;-71
2023/09/11 04:04:29;;;;;;;33.95;18.15;;;;;;;;;;5083841;28;20051;-76
2023/09/11 04:06:55;;;;;;;35.58;19.35;;;;;;;;;;5104522;28;20043;-76
2023/09/11 04:09:21;;;;;;;33.75;18.67;;;20.60;99.90;;;;;;5099180;28;20070;-76
2023/09/11 04:11:47;;;;;;;32.83;18.88;;;21.60;99.90;;;;;;5082631;28;20043;-76
2023/09/11 04:14:13;;;;;;;32.55;17.80;;;;;;;;;;5081177;28;20062;-76
2023/09/11 04:16:38;;;;;;;42.95;19.70;;;19.90;99.90;;;;;;5096403;28;20391;-77
2023/09/11 04:19:04;;;;;;;36.60;18.42;;;20.10;99.90;;;;;;5078685;28;20039;-77
2023/09/11 04:21:30;;;;;;;28.65;18.30;;;;;;;;;;5095578;28;20040;-70
2023/09/11 04:23:56;;;;;;;33.95;17.73;;;21.10;99.90;;;;;;5095432;28;20032;-70
2023/09/11 04:26:22;;;;;;;32.75;17.70;;;19.90;99.90;;;;;;5078205;28;20090;-71
2023/09/11 04:28:48;;;;;;;36.45;18.98;;;19.90;99.90;;;;;;5078746;28;20396;-70
2023/09/11 04:31:14;;;;;;;31.38;19.17;;;20.00;99.90;;;;;;5078406;28;20046;-70
2023/09/11 04:33:39;;;;;;;36.00;18.48;;;20.50;99.90;;;;;;5095502;28;20043;-77
2023/09/11 04:36:05;;;;;;;37.22;19.27;;;21.40;99.90;;;;;;5095156;28;20073;-71
2023/09/11 04:38:31;;;;;;;35.33;18.92;;;20.00;99.90;;;;;;5095169;28;20036;-70
2023/09/11 04:40:57;;;;;;;30.35;17.90;;;20.30;99.90;;;;;;5078214;28;20054;-70
2023/09/11 04:43:24;;;;;;;39.70;19.15;;;20.80;99.90;;;;;;5094930;28;20052;-71
2023/09/11 04:45:50;;;;;;;41.75;18.52;;;;;;;;;;5078451;28;20039;-71
2023/09/11 04:48:16;;;;;;;32.92;18.00;;;21.80;99.90;;;;;;5095003;28;20093;-71
2023/09/11 04:50:42;;;;;;;37.40;19.60;;;;;;;;;;5078671;28;20417;-71
2023/09/11 04:53:08;;;;;;;41.75;19.48;;;;;;;;;;5078434;28;20046;-71
2023/09/11 04:55:34;;;;;;;39.25;19.40;;;;;;;;;;5096718;28;20134;-71
2023/09/11 04:58:00;;;;;;;31.40;18.73;;;20.00;99.90;;;;;;5099072;28;20047;-71
2023/09/11 05:00:26;;;;;;;39.70;19.92;;;21.00;99.90;;;;;;5098911;28;20069;-71
2023/09/11 05:02:52;;;;;;;33.67;18.67;;;20.30;99.90;;;;;;5099040;28;20036;-71
2023/09/11 05:05:18;;;;;;;39.80;19.55;;;19.90;99.90;;;;;;5081925;28;20055;-71
2023/09/11 05:07:44;;;;;;;37.10;19.73;;;;;;;;;;5081938;28;20043;-71
2023/09/11 05:10:14;;;;;;;41.20;20.13;;;21.20;99.90;;;;;;5081952;28;20039;-76
2023/09/11 05:12:40;;;;;;;34.70;18.25;;;20.50;99.90;;;;;;5098792;28;20512;-77
2023/09/11 05:15:06;;;;;;;36.50;19.00;;;21.00;99.90;;;;;;5081854;28;20106;-77
2023/09/11 05:17:33;;;;;;;37.30;18.80;;;20.30;99.90;;;;;;5098789;28;20043;-77
2023/09/11 05:19:59;;;;;;;38.95;18.38;;;;;;;;;;5099204;28;20043;-77
2023/09/11 05:22:25;;;;;;;37.08;19.23;;;21.00;99.90;;;;;;5098741;28;20050;-71
2023/09/11 05:24:53;;;;;;;36.90;20.70;;;21.30;99.90;;;;;;5098751;28;20047;-71
2023/09/11 05:27:20;;;;;;;34.50;19.38;;;21.10;99.90;;;;;;5098677;28;20075;-71
2023/09/11 05:29:46;;;;;;;30.75;19.17;;;;;;;;;;5082038;28;20043;-71
2023/09/11 05:32:12;;;;;;;44.15;21.42;;;21.70;99.90;;;;;;5081872;28;20093;-71
2023/09/11 05:34:38;;;;;;;36.10;20.75;;;;;;;;;;5065195;28;20134;-77
2023/09/11 05:37:04;;;;;;;41.50;21.48;;;;;;;;;;5081458;28;20126;-78
2023/09/11 05:39:31;;;;;;;35.40;20.63;;;20.40;99.90;;;;;;5098429;28;20467;-77
2023/09/11 05:41:57;;;;;;;37.28;20.83;;;21.20;99.90;;;;;;5081821;28;20051;-76
2023/09/11 05:44:23;;;;;;;35.20;20.88;;;20.90;99.90;;;;;;5098267;28;20399;-71
2023/09/11 05:46:49;;;;;;;34.15;19.40;;;20.70;99.90;;;;;;5081151;28;20043;-76
2023/09/11 05:49:15;;;;;;;35.60;20.20;;;21.40;99.90;;;;;;5098483;28;20066;-76
2023/09/11 05:51:40;;;;;;;38.28;18.35;;;21.70;99.90;;;;;;5098529;28;20131;-77
2023/09/11 05:54:06;;;;;;;35.95;22.38;;;21.20;99.90;;;;;;5098214;28;20043;-76
2023/09/11 05:56:33;;;;;;;38.33;19.80;;;20.70;99.90;;;;;;5098098;28;20047;-77
2023/09/11 05:58:59;;;;;;;34.88;18.73;;;19.90;99.90;;;;;;5098262;28;20437;-77
2023/09/11 06:01:24;;;;;;;36.70;20.02;;;21.80;99.90;;;;;;5097758;28;20043;-71
2023/09/11 06:03:50;;;;;;;34.90;18.05;;;;;;;;;;5080990;28;20081;-71
2023/09/11 06:06:16;;;;;;;35.63;19.27;;;21.10;99.90;;;;;;5096955;28;20036;-70
2023/09/11 06:08:42;;;;;;;33.05;19.63;;;20.70;99.90;;;;;;5096920;28;20035;-71
2023/09/11 06:11:08;;;;;;;37.08;20.35;;;;;;;;;;5115841;28;20123;-71
2023/09/11 06:13:35;;;;;;;37.97;19.90;;;;;;;;;;5080585;28;20044;-71
2023/09/11 06:16:01;;;;;;;34.85;18.75;;;20.20;99.90;;;;;;5097638;28;20043;-71
2023/09/11 06:18:27;;;;;;;35.60;19.63;;;20.00;99.90;;;;;;5097618;28;20395;-71
2023/09/11 06:20:53;;;;;;;26.95;19.15;;;20.80;99.90;;;;;;5097190;28;20402;-71
2023/09/11 06:23:19;;;;;;;29.02;19.15;;;21.70;99.90;;;;;;5097236;28;20047;-76
2023/09/11 06:25:44;;;;;;;29.65;19.27;;;21.30;99.90;;;;;;5115853;28;20043;-77
2023/09/11 06:28:10;;;;;;;35.08;21.83;;;;;;;;;;5080456;28;20043;-76
2023/09/11 06:30:36;;;;;;;30.52;20.13;;;21.90;99.90;;;;;;5097459;28;20043;-76
2023/09/11 06:33:02;;;;;;;37.00;21.13;;;22.10;99.90;;;;;;5080574;28;20036;-77
2023/09/11 06:35:27;;;;;;;37.95;21.17;;;22.20;99.90;;;;;;5080341;28;20399;-77
2023/09/11 06:37:54;;;;;;;40.85;20.67;;;;;;;;;;5080346;28;20039;-77
2023/09/11 06:40:20;;;;;;;31.98;20.88;;;22.10;99.90;;;;;;5097264;28;20516;-77
2023/09/11 06:42:45;;;;;;;34.30;21.00;;;22.30;99.90;;;;;;5097300;28;20056;-77
2023/09/11 06:45:11;;;;;;;38.38;20.75;;;22.30;99.90;;;;;;5080296;28;20065;-77
2023/09/11 06:47:37;;;;;;;27.65;19.33;;;;;;;;;;5080208;28;20032;-77
2023/09/11 06:50:03;;;;;;;35.53;21.27;;;21.40;99.90;;;;;;5080433;28;20043;-76
2023/09/11 06:52:29;;;;;;;36.47;21.63;;;;;;;;;;5096765;28;20141;-77
2023/09/11 06:54:55;;;;;;;33.15;21.67;;;20.90;99.90;;;;;;5080121;28;20043;-77
2023/09/11 06:57:22;;;;;;;33.10;20.13;;;21.50;99.90;;;;;;5080347;28;20099;-76
2023/09/11 06:59:48;;;;;;;35.33;20.52;;;22.50;99.90;;;;;;5097118;28;20434;-77
2023/09/11 07:02:14;;;;;;;34.20;20.27;;;22.50;99.90;;;;;;5096996;28;20036;-77
2023/09/11 07:04:40;;;;;;;34.67;20.73;;;;;;;;;;5113927;28;20132;-77
2023/09/11 07:07:05;;;;;;;36.13;20.52;;;21.90;99.90;;;;;;5096630;28;20048;-77
2023/09/11 07:09:31;;;;;;;34.45;21.90;;;21.60;99.90;;;;;;5096795;28;20035;-77
2023/09/11 07:11:57;;;;;;;39.20;20.85;;;22.20;99.90;;;;;;5096756;28;20381;-76
2023/09/11 07:14:23;;;;;;;35.08;21.20;;;20.80;99.90;;;;;;5096571;28;20044;-76
2023/09/11 07:16:49;;;;;;;37.95;20.77;;;22.10;99.90;;;;;;5096624;28;20048;-77
2023/09/11 07:19:15;;;;;;;38.38;23.50;;;21.70;99.90;;;;;;5079759;28;20108;-76
2023/09/11 07:21:41;;;;;;;39.22;23.15;;;21.00;99.90;;;;;;5096627;28;20047;-77
2023/09/11 07:24:07;;;;;;;37.90;22.00;;;20.70;99.90;;;;;;5079838;28;20073;-77
2023/09/11 07:26:33;;;;;;;42.35;22.75;;;20.80;99.90;;;;;;5097171;28;20043;-77
2023/09/11 07:29:02;;;;;;;32.53;22.45;;;22.60;99.90;;;;;;5096839;28;20036;-77
2023/09/11 07:31:29;;;;;;;42.40;22.60;;;22.00;99.90;;;;;;5114602;28;20039;-71
2023/09/11 07:33:55;;;;;;;34.63;22.92;;;;;;;;;;5115009;28;20659;-71
2023/09/11 07:36:21;;;;;;;34.22;22.15;;;;;;;;;;5079482;28;20048;-71
2023/09/11 07:38:47;;;;;;;36.97;24.35;;;22.30;99.90;;;;;;5096717;28;20047;-71
2023/09/11 07:41:18;;;;;;;36.78;23.92;;;22.70;99.90;;;;;;5080379;28;20055;-71
2023/09/11 07:43:51;;;;;;;39.15;25.33;;;22.20;99.90;;;;;;5096733;28;20534;-71
2023/09/11 07:46:19;;;;;;;40.20;25.92;;;22.90;99.90;;;;;;5106828;28;20066;-71
2023/09/11 07:48:45;;;;;;;38.40;24.20;;;;;;;;;;5120880;28;20055;-71
2023/09/11 07:51:12;;;;;;;38.00;24.17;;;22.20;99.90;;;;;;5119925;28;20050;-71
2023/09/11 07:53:38;;;;;;;35.75;24.15;;;22.70;99.90;;;;;;5119083;28;20210;-71
2023/09/11 07:56:08;;;;;;;42.53;24.70;;;22.30;99.90;;;;;;5121152;28;20087;-70
2023/09/11 07:58:35;;;;;;;39.30;24.52;;;23.30;99.90;;;;;;5119698;28;20051;-76
2023/09/11 08:01:01;;;;;;;36.17;24.23;;;;;;;;;;5119804;28;20040;-76
2023/09/11 08:03:27;;;;;;;40.03;25.90;;;22.60;99.90;;;;;;5101565;28;20392;-76
2023/09/11 08:05:53;;;;;;;42.55;26.48;;;;;;;;;;5099621;28;20039;-77
2023/09/11 08:08:19;;;;;;;39.75;25.58;;;22.10;99.90;;;;;;5080424;28;20468;-70
2023/09/11 08:10:45;;;;;;;52.97;27.25;;;23.10;99.90;;;;;;5078620;28;20043;-70
2023/09/11 08:13:11;;;;;;;44.42;26.45;;;22.10;99.90;;;;;;5080411;28;20118;-71
2023/09/11 08:15:36;;;;;;;41.50;25.65;;;23.70;99.90;;;;;;5095384;28;20138;-76
2023/09/11 08:18:02;;;;;;;40.15;25.50;;;22.20;99.90;;;;;;5113786;28;20042;-76
2023/09/11 08:20:28;;;;;;;39.50;23.85;;;22.30;99.90;;;;;;5095083;28;20122;-76
2023/09/11 08:22:54;;;;;;;47.20;24.73;;;23.40;99.90;;;;;;5095106;28;20048;-76
2023/09/11 08:25:19;;;;;;;35.25;23.00;;;23.00;99.90;;;;;;5095051;28;20077;-77
2023/09/11 08:27:46;;;;;;;32.92;22.15;;;23.20;99.90;;;;;;5095403;28;20044;-76
2023/09/11 08:30:13;;;;;;;31.10;21.83;;;;;;;;;;5096144;28;20047;-70
2023/09/11 08:32:39;;;;;;;34.22;22.38;;;23.70;99.90;;;;;;5099486;28;20130;-71
2023/09/11 08:35:05;;;;;;;37.15;21.55;;;23.60;99.90;;;;;;5099161;28;20494;-71
2023/09/11 08:37:30;;;;;;;38.08;22.08;;;24.10;99.90;;;;;;5099206;28;20060;-71
2023/09/11 08:39:56;;;;;;;40.67;22.90;;;24.20;99.90;;;;;;5082459;28;20077;-69
2023/09/11 08:42:26;;;;;;;39.90;22.85;;;23.70;99.90;;;;;;5099000;28;20058;-70
2023/09/11 08:44:52;;;;;;;33.92;23.98;;;23.70;99.90;;;;;;5098705;28;20496;-76
2023/09/11 08:47:20;;;;;;;38.17;22.52;;;23.90;99.90;;;;;;5098909;28;20051;-70
2023/09/11 08:50:02;;;;;;;34.60;24.05;;;23.70;99.90;;;;;;5081914;28;20372;-70
2023/09/11 08:52:29;;;;;;;36.33;22.00;;;24.20;99.90;;;;;;5082267;28;20066;-70
2023/09/11 08:54:59;;;;;;;37.92;23.90;;;24.50;99.90;;;;;;5082130;28;20496;-70
2023/09/11 08:57:27;;;;;;;31.45;22.30;;;23.90;99.90;;;;;;5099139;28;20039;-70
2023/09/11 08:59:58;;;;;;;36.65;23.38;;;23.20;99.90;;;;;;5081864;28;20040;-76
2023/09/11 09:02:26;;;;;;;34.17;22.80;;;23.10;99.90;;;;;;5098707;28;20040;-76
2023/09/11 09:04:54;;;;;;;33.63;23.23;;;23.80;99.90;;;;;;5116945;28;20031;-77
2023/09/11 09:07:21;;;;;;;28.42;22.08;;;24.50;99.90;;;;;;5099160;28;20123;-78
2023/09/11 09:09:47;;;;;;;44.72;25.05;;;24.30;99.90;;;;;;5098556;28;20043;-77
2023/09/11 09:12:13;;;;;;;29.13;22.55;;;25.00;99.90;;;;;;5081705;28;20050;-76
2023/09/11 09:14:39;;;;;;;36.22;23.55;;;;;;;;;;5081922;28;20040;-77
2023/09/11 09:17:06;;;;;;;33.65;23.08;;;24.50;99.90;;;;;;5081582;28;20047;-77
2023/09/11 09:19:33;;;;;;;29.42;20.55;;;24.60;99.90;;;;;;5081490;28;20043;-77
2023/09/11 09:22:05;;;;;;;28.35;21.17;;;25.20;99.90;;;;;;5082024;28;20588;-77
2023/09/11 09:24:31;;;;;;;;;;;24.80;99.90;;;;;;5098955;28;20119;-77
2023/09/11 09:26:58;;;;;;;40.63;24.88;;;25.10;99.90;;;;;;5081324;28;20447;-71
2023/09/11 09:29:24;;;;;;;36.03;24.00;;;25.20;99.90;;;;;;5098159;28;20047;-71
2023/09/11 09:31:50;;;;;;;37.55;24.95;;;25.30;99.90;;;;;;5098186;28;20433;-71
2023/09/11 09:34:16;;;;;;;35.45;24.95;;;24.60;99.90;;;;;;5098131;28;20046;-71
2023/09/11 09:36:52;;;;;;;29.30;22.00;;;24.30;99.90;;;;;;5080906;28;20391;-71
2023/09/11 09:39:19;;;;;;;31.23;21.60;;;25.30;99.90;;;;;;5098345;28;20091;-71
2023/09/11 09:42:12;;;;;;;31.90;20.23;;;25.40;99.90;;;;;;5080859;28;20043;-71
2023/09/11 09:44:43;;;;;;;35.53;19.50;;;25.30;99.90;;;;;;5090373;28;20052;-71
2023/09/11 09:47:09;;;;;;;;;;;25.00;98.80;;;;;;5094654;28;20123;-71
2023/09/11 09:49:55;;;;;;;32.38;19.17;;;25.00;99.90;;;;;;5094426;28;20058;-71
2023/09/11 09:52:24;;;;;;;30.00;18.00;;;24.80;99.90;;;;;;5094594;28;20484;-71
2023/09/11 09:55:07;;;;;;;24.48;16.50;;;25.90;99.60;;;;;;5094746;28;20040;-71
2023/09/11 09:57:33;;;;;;;22.80;16.23;;;;;;;;;;5094645;28;20074;-77
2023/09/11 10:00:00;;;;;;;31.00;16.17;;;25.20;99.90;;;;;;5094298;28;20076;-71
2023/09/11 10:02:31;;;;;;;21.70;13.88;;;26.10;99.90;;;;;;5094094;28;20036;-71
2023/09/11 10:05:01;;;;;;;20.52;13.15;;;25.70;99.90;;;;;;5093949;28;20047;-71
2023/09/11 10:07:45;;;;;;;21.20;13.68;;;25.50;96.30;;;;;;5094274;28;20144;-72
2023/09/11 10:10:25;;;;;;;20.33;12.07;;;25.10;99.90;;;;;;5093975;28;20044;-71
2023/09/11 10:13:04;;;;;;;21.20;11.77;;;26.20;96.80;;;;;;5093837;28;20488;-76
2023/09/11 10:15:33;;;;;;;22.48;11.50;;;26.40;96.90;;;;;;5093790;28;20059;-76
2023/09/11 10:18:00;;;;;;;17.17;10.63;;;25.80;96.30;;;;;;5093618;28;20504;-76
2023/09/11 10:20:26;;;;;;;22.88;10.65;;;26.30;99.50;;;;;;5093616;28;20044;-76
2023/09/11 10:22:58;;;;;;;18.65;11.02;;;25.80;95.90;;;;;;5093854;28;20097;-77
2023/09/11 10:25:27;;;;;;;22.45;12.50;;;26.10;95.90;;;;;;5093914;28;20044;-76
2023/09/11 10:28:07;;;;;;;21.13;12.75;;;26.40;99.40;;;;;;5094221;28;20040;-77
2023/09/11 10:30:45;;;;;;;29.38;14.27;;;26.20;99.10;;;;;;5076834;28;20396;-76
2023/09/11 10:33:21;;;;;;;22.10;12.13;;;26.60;99.50;;;;;;5094119;28;20044;-76
2023/09/11 10:35:50;;;;;;;18.60;10.32;;;26.30;95.80;;;;;;5093868;28;20044;-76
2023/09/11 10:38:16;;;;;;;28.23;10.95;;;26.90;98.90;;;;;;5093911;28;20048;-78
2023/09/11 10:40:43;;;;;;;20.50;11.93;;;26.80;98.80;;;;;;5060387;28;20043;-77
2023/09/11 10:43:10;;;;;;;20.50;11.45;;;26.20;95.40;;;;;;5094702;28;20128;-76
2023/09/11 10:45:36;;;;;;;15.93;10.48;;;26.40;98.80;;;;;;5080275;28;20055;-76
2023/09/11 10:48:02;;;;;;;20.42;12.45;;;26.90;98.60;;;;;;5097108;28;20058;-76
2023/09/11 10:50:42;;;;;;;25.10;12.38;;;27.10;94.10;;;;;;5096896;28;20092;-77
2023/09/11 10:53:09;;;;;;;21.75;9.52;;;26.90;98.30;;;;;;5096223;28;20075;-77
2023/09/11 10:55:35;;;;;;;16.27;9.85;;;27.00;98.00;;;;;;5097161;28;20127;-77
2023/09/11 10:58:05;;;;;;;19.13;10.00;;;27.20;98.10;;;;;;5096687;28;20036;-77
2023/09/11 11:00:37;;;;;;;14.52;8.50;;;26.40;97.80;;;;;;5097136;28;20368;-76
2023/09/11 11:03:04;;;;;;;18.00;6.60;;;26.40;94.60;;;;;;5079942;28;20047;-78
2023/09/11 11:05:32;;;;;;;15.95;7.57;;;26.30;96.80;;;;;;5096588;28;20126;-77
2023/09/11 11:07:58;;;;;;;13.40;7.32;;;26.90;97.00;;;;;;5096891;28;20433;-77
2023/09/11 11:10:25;;;;;;;10.40;6.00;;;26.80;96.60;;;;;;5114925;28;20035;-77
2023/09/11 11:13:08;;;;;;;14.30;6.70;;;27.10;96.50;;;;;;5079767;28;20044;-77
2023/09/11 11:15:35;;;;;;;15.65;5.90;;;;;;;;;;5096433;28;20471;-77
2023/09/11 11:18:26;;;;;;;10.48;5.97;;;27.30;95.90;;;;;;5096591;28;20399;-77
2023/09/11 11:21:07;;;;;;;14.43;7.55;;;27.30;95.70;;;;;;5079418;28;20046;-77
2023/09/11 11:23:35;;;;;;;15.27;6.07;;;27.20;95.80;;;;;;5096483;28;20043;-77
2023/09/11 11:26:06;;;;;;;11.88;5.80;;;26.90;95.60;;;;;;5096477;28;20052;-77
2023/09/11 11:28:43;;;;;;;13.40;5.30;;;27.00;91.00;;;;;;5096393;28;20039;-71
2023/09/11 11:31:13;;;;;;;14.07;6.07;;;26.70;95.10;;;;;;5079292;28;20403;-71
2023/09/11 11:33:40;;;;;;;14.45;6.53;;;27.40;91.50;;;;;;5079305;28;20041;-77
2023/09/11 11:36:07;;;;;;;15.18;6.63;;;27.30;93.30;;;;;;5096605;28;20120;-77
2023/09/11 11:38:34;;;;;;;9.65;6.75;;;27.40;95.10;;;;;;5079586;28;20126;-78
2023/09/11 11:41:02;;;;;;;12.82;6.32;;;26.80;95.20;;;;;;5079538;28;20040;-77
2023/09/11 11:43:32;;;;;;;14.32;7.10;;;26.90;95.40;;;;;;5096122;28;20059;-77
2023/09/11 11:45:57;;;;;;;17.33;7.63;;;27.40;95.80;;;;;;5113921;28;20076;-78
2023/09/11 11:48:26;;;;;;;12.13;8.48;;;27.30;95.80;;;;;;5079221;28;20040;-77
2023/09/11 11:50:51;;;;;;;14.68;8.23;;;27.50;95.90;;;;;;5095843;28;20039;-71
2023/09/11 11:53:23;;;;;;;12.95;8.35;;;27.00;96.00;;;;;;5095629;28;20062;-71
2023/09/11 11:55:55;;;;;;;;;;;26.90;93.20;;;;;;5079389;28;20054;-71
2023/09/11 11:58:21;;;;;;;18.83;9.15;;;27.50;96.50;;;;;;5095892;28;19939;-71
2023/09/11 12:00:58;;;;;;;19.38;9.30;;;27.00;91.80;;;;;;5095604;28;20479;-71
2023/09/11 12:03:28;;;;;;;16.08;8.68;;;26.70;96.10;;;;;;5095715;28;20514;-72
2023/09/11 12:05:55;;;;;;;17.55;9.75;;;27.40;96.30;;;;;;5077830;28;20093;-72
2023/09/11 12:08:21;;;;;;;12.90;8.25;;;27.10;92.60;;;;;;5101583;28;20052;-72
2023/09/11 12:10:48;;;;;;;13.80;8.32;;;26.90;94.10;;;;;;5118878;28;20032;-72
2023/09/11 12:13:16;;;;;;;19.42;10.05;;;27.10;92.80;;;;;;5118827;28;20099;-72
2023/09/11 12:15:42;;;;;;;18.80;9.90;;;;;;;;;;5100798;28;20032;-72
2023/09/11 12:18:12;;;;;;;18.50;10.57;;;27.10;96.40;;;;;;5118880;28;20047;-71
2023/09/11 12:20:38;;;;;;;20.23;9.77;;;27.40;96.50;;;;;;5102672;28;20031;-71
2023/09/11 12:23:04;;;;;;;18.83;11.02;;;26.60;96.40;;;;;;5118778;28;20096;-76
2023/09/11 12:25:30;;;;;;;21.92;11.40;;;27.30;96.80;;;;;;5073558;28;20074;-77
2023/09/11 12:27:56;;;;;;;17.65;9.85;;;;;;;;;;5101874;28;20043;-76
2023/09/11 12:30:22;;;;;;;19.25;10.18;;;;;;;;;;5086474;28;20036;-77
2023/09/11 12:32:49;;;;;;;16.85;9.93;;;26.50;96.30;;;;;;5103431;28;20040;-78
2023/09/11 12:35:27;;;;;;;20.58;10.73;;;27.70;96.40;;;;;;5084171;28;20039;-76
2023/09/11 12:37:53;;;;;;;21.63;11.65;;;27.80;92.70;;;;;;5096593;28;20111;-77
2023/09/11 12:40:19;;;;;;;17.75;10.68;;;27.70;95.80;;;;;;5079256;28;20035;-77
2023/09/11 12:42:45;;;;;;;43.08;11.55;;;27.30;96.20;;;;;;5095986;28;20162;-77
2023/09/11 12:45:11;;;;;;;21.35;10.50;;;27.00;96.20;;;;;;5095102;28;20387;-77
2023/09/11 12:47:37;;;;;;;17.35;10.40;;;27.80;96.30;;;;;;5078606;28;20059;-77